createdAt,value
2019-03-03T00:00:19.653Z,23.20
2019-03-03T00:01:00.881Z,20.70
2019-03-03T00:01:44.276Z,21.20
2019-03-03T00:02:22.375Z,20.90
2019-03-03T00:03:07.735Z,21.25
2019-03-03T00:03:44.146Z,19.65
2019-03-03T00:04:24.735Z,21.87
2019-03-03T00:05:11.448Z,21.33
2019-03-03T00:05:53.524Z,20.57
2019-03-03T00:06:27.786Z,20.92
2019-03-03T00:07:04.186Z,20.25
2019-03-03T00:07:38.488Z,21.23
2019-03-03T00:08:14.641Z,20.43
2019-03-03T00:08:53.372Z,20.52
2019-03-03T00:09:39.723Z,20.70
2019-03-03T00:10:21.775Z,20.80
2019-03-03T00:10:59.497Z,19.98
2019-03-03T00:11:34.285Z,19.75
2019-03-03T00:12:08.254Z,20.75
2019-03-03T00:12:43.276Z,21.80
2019-03-03T00:13:18.287Z,20.23
2019-03-03T00:13:52.089Z,21.30
2019-03-03T00:14:26.991Z,20.95
2019-03-03T00:15:01.302Z,22.22
2019-03-03T00:15:36.521Z,20.95
2019-03-03T00:16:11.178Z,21.25
2019-03-03T00:16:45.539Z,19.70
2019-03-03T00:17:19.470Z,22.15
2019-03-03T00:17:54.219Z,20.57
2019-03-03T00:18:28.508Z,22.20
2019-03-03T00:19:02.969Z,21.25
2019-03-03T00:19:36.945Z,21.30
2019-03-03T00:20:11.373Z,22.17
2019-03-03T00:20:45.770Z,21.87
2019-03-03T00:21:19.837Z,20.48
2019-03-03T00:21:54.682Z,21.20
2019-03-03T00:22:29.506Z,20.17
2019-03-03T00:23:03.919Z,20.30
2019-03-03T00:23:38.679Z,21.30
2019-03-03T00:24:17.606Z,21.68
2019-03-03T00:24:55.181Z,22.35
2019-03-03T00:25:30.134Z,21.00
2019-03-03T00:26:04.091Z,21.65
2019-03-03T00:26:39.167Z,21.20
2019-03-03T00:27:13.840Z,22.73
2019-03-03T00:27:47.941Z,20.45
2019-03-03T00:28:22.209Z,21.45
2019-03-03T00:28:57.001Z,22.45
2019-03-03T00:29:32.430Z,21.10
2019-03-03T00:30:13.898Z,22.52
2019-03-03T00:30:48.995Z,23.40
2019-03-03T00:31:33.465Z,21.77
2019-03-03T00:32:07.919Z,22.52
2019-03-03T00:32:41.881Z,23.18
2019-03-03T00:33:16.759Z,21.23
2019-03-03T00:33:51.598Z,22.05
2019-03-03T00:34:26.006Z,23.45
2019-03-03T00:35:00.670Z,21.73
2019-03-03T00:35:35.990Z,22.42
2019-03-03T00:36:10.457Z,21.95
2019-03-03T00:37:16.215Z,21.17
2019-03-03T00:38:15.997Z,22.60
2019-03-03T00:38:56.801Z,20.82
2019-03-03T00:39:51.486Z,20.88
2019-03-03T00:40:45.099Z,22.20
2019-03-03T00:41:37.264Z,20.97
2019-03-03T00:42:34.272Z,21.57
2019-03-03T00:43:28.037Z,21.60
2019-03-03T00:44:23.349Z,21.35
2019-03-03T00:45:15.085Z,21.25
2019-03-03T00:46:01.288Z,22.13
2019-03-03T00:46:53.453Z,20.97
2019-03-03T00:47:46.717Z,20.27
2019-03-03T00:48:55.467Z,21.80
2019-03-03T00:49:39.922Z,21.73
2019-03-03T00:50:20.729Z,19.62
2019-03-03T00:51:12.561Z,20.02
2019-03-03T00:52:05.230Z,20.30
2019-03-03T00:52:57.525Z,21.77
2019-03-03T00:54:00.968Z,21.17
2019-03-03T00:54:53.117Z,20.57
2019-03-03T00:55:34.810Z,21.77
2019-03-03T00:56:21.740Z,20.72
2019-03-03T00:57:01.935Z,20.70
2019-03-03T00:57:55.167Z,23.30
2019-03-03T00:58:49.298Z,20.65
2019-03-03T00:59:42.848Z,20.77
2019-03-03T01:00:33.271Z,21.95
2019-03-03T01:01:19.862Z,21.57
2019-03-03T01:02:04.364Z,20.77
2019-03-03T01:02:46.223Z,21.12
2019-03-03T01:03:30.232Z,21.75
2019-03-03T01:04:27.097Z,21.00
2019-03-03T01:05:20.754Z,21.42
2019-03-03T01:06:06.831Z,21.87
2019-03-03T01:07:09.789Z,21.70
2019-03-03T01:07:55.448Z,20.92
2019-03-03T01:08:50.537Z,19.70
2019-03-03T01:09:51.230Z,20.75
2019-03-03T01:10:50.926Z,19.77
2019-03-03T01:11:53.802Z,19.60
2019-03-03T01:12:43.550Z,19.07
2019-03-03T01:13:43.712Z,19.17
2019-03-03T01:14:33.452Z,19.67
2019-03-03T01:15:29.258Z,20.00
2019-03-03T01:16:28.152Z,20.57
2019-03-03T01:17:23.194Z,19.32
2019-03-03T01:18:17.363Z,20.48
2019-03-03T01:19:21.923Z,20.65
2019-03-03T01:20:06.551Z,21.20
2019-03-03T01:21:18.177Z,18.75
2019-03-03T01:22:04.728Z,21.70
2019-03-03T01:23:03.154Z,21.20
2019-03-03T01:24:05.811Z,21.50
2019-03-03T01:24:47.787Z,21.12
2019-03-03T01:25:21.166Z,21.25
2019-03-03T01:25:55.842Z,21.77
2019-03-03T01:26:30.311Z,19.82
2019-03-03T01:27:04.863Z,21.85
2019-03-03T01:27:39.323Z,22.20
2019-03-03T01:28:14.883Z,21.27
2019-03-03T01:28:49.237Z,21.48
2019-03-03T01:29:24.200Z,21.55
2019-03-03T01:29:59.010Z,19.42
2019-03-03T01:30:34.244Z,21.15
2019-03-03T01:31:08.574Z,22.40
2019-03-03T01:31:44.230Z,22.20
2019-03-03T01:32:18.824Z,21.35
2019-03-03T01:32:53.235Z,20.95
2019-03-03T01:33:28.770Z,21.70
2019-03-03T01:34:02.856Z,21.62
2019-03-03T01:34:38.728Z,20.95
2019-03-03T01:35:13.201Z,21.65
2019-03-03T01:35:47.839Z,20.97
2019-03-03T01:36:22.599Z,21.82
2019-03-03T01:36:57.691Z,23.80
2019-03-03T01:37:32.631Z,20.80
2019-03-03T01:38:08.680Z,20.82
2019-03-03T01:38:43.144Z,20.25
2019-03-03T01:39:18.374Z,20.10
2019-03-03T01:39:53.396Z,20.62
2019-03-03T01:40:28.304Z,22.25
2019-03-03T01:41:03.675Z,21.82
2019-03-03T01:41:38.559Z,22.13
2019-03-03T01:42:13.596Z,21.77
2019-03-03T01:42:47.973Z,20.82
2019-03-03T01:43:22.807Z,22.22
2019-03-03T01:43:57.408Z,21.23
2019-03-03T01:44:31.719Z,21.30
2019-03-03T01:45:07.227Z,19.87
2019-03-03T01:45:42.454Z,22.25
2019-03-03T01:46:17.332Z,21.93
2019-03-03T01:46:51.894Z,21.65
2019-03-03T01:47:25.959Z,22.32
2019-03-03T01:48:01.321Z,22.73
2019-03-03T01:48:35.719Z,22.45
2019-03-03T01:49:10.275Z,21.87
2019-03-03T01:49:44.684Z,21.62
2019-03-03T01:50:18.632Z,20.90
2019-03-03T01:50:52.962Z,22.00
2019-03-03T01:51:28.175Z,20.17
2019-03-03T01:52:02.500Z,20.10
2019-03-03T01:52:37.645Z,21.68
2019-03-03T01:53:12.930Z,21.60
2019-03-03T01:53:47.719Z,20.88
2019-03-03T01:54:22.143Z,22.80
2019-03-03T01:54:57.738Z,21.25
2019-03-03T01:55:32.706Z,22.27
2019-03-03T01:56:07.523Z,20.55
2019-03-03T01:56:41.936Z,21.77
2019-03-03T01:57:16.261Z,21.45
2019-03-03T01:57:50.331Z,21.55
2019-03-03T01:58:25.250Z,20.37
2019-03-03T01:59:00.009Z,20.92
2019-03-03T01:59:35.316Z,19.52
2019-03-03T02:00:22.613Z,21.10
2019-03-03T02:00:57.601Z,20.90
2019-03-03T02:01:32.434Z,19.20
2019-03-03T02:02:07.681Z,19.30
2019-03-03T02:02:42.646Z,20.62
2019-03-03T02:03:17.418Z,20.50
2019-03-03T02:03:52.712Z,21.02
2019-03-03T02:04:26.595Z,21.02
2019-03-03T02:04:59.139Z,22.00
2019-03-03T02:05:33.787Z,21.48
2019-03-03T02:06:10.567Z,20.95
2019-03-03T02:06:45.053Z,20.27
2019-03-03T02:07:19.464Z,20.00
2019-03-03T02:07:54.226Z,20.35
2019-03-03T02:08:28.272Z,20.68
2019-03-03T02:09:02.791Z,20.55
2019-03-03T02:09:37.895Z,19.12
2019-03-03T02:10:12.320Z,19.10
2019-03-03T02:10:47.290Z,21.37
2019-03-03T02:11:22.750Z,20.72
2019-03-03T02:11:57.184Z,20.62
2019-03-03T02:12:32.367Z,20.75
2019-03-03T02:13:07.370Z,20.50
2019-03-03T02:13:41.435Z,19.75
2019-03-03T02:14:16.837Z,20.27
2019-03-03T02:14:52.228Z,19.15
2019-03-03T02:15:26.706Z,20.00
2019-03-03T02:16:01.603Z,20.30
2019-03-03T02:16:35.548Z,20.97
2019-03-03T02:17:11.136Z,20.45
2019-03-03T02:17:45.656Z,20.17
2019-03-03T02:18:20.054Z,19.98
2019-03-03T02:18:54.526Z,20.20
2019-03-03T02:19:29.043Z,20.20
2019-03-03T02:20:03.027Z,20.82
2019-03-03T02:20:38.584Z,19.95
2019-03-03T02:21:14.218Z,22.58
2019-03-03T02:21:48.934Z,19.73
2019-03-03T02:22:23.351Z,20.00
2019-03-03T02:22:58.381Z,19.73
2019-03-03T02:23:33.117Z,20.88
2019-03-03T02:24:07.523Z,20.08
2019-03-03T02:24:41.877Z,20.85
2019-03-03T02:25:16.908Z,19.17
2019-03-03T02:25:52.159Z,19.48
2019-03-03T02:26:26.755Z,19.75
2019-03-03T02:26:59.903Z,20.37
2019-03-03T02:27:34.237Z,21.27
2019-03-03T02:28:08.855Z,21.50
2019-03-03T02:28:43.665Z,18.92
2019-03-03T02:29:18.348Z,19.25
2019-03-03T02:29:53.322Z,20.88
2019-03-03T02:30:27.353Z,20.52
2019-03-03T02:31:01.355Z,20.30
2019-03-03T02:31:35.911Z,20.95
2019-03-03T02:32:11.034Z,20.55
2019-03-03T02:32:45.387Z,21.10
2019-03-03T02:33:20.883Z,20.95
2019-03-03T02:33:54.825Z,19.92
2019-03-03T02:34:29.334Z,21.42
2019-03-03T02:35:04.167Z,21.27
2019-03-03T02:35:38.710Z,19.98
2019-03-03T02:36:14.030Z,20.43
2019-03-03T02:36:48.714Z,19.80
2019-03-03T02:37:23.545Z,19.80
2019-03-03T02:37:58.856Z,20.27
2019-03-03T02:38:34.367Z,19.82
2019-03-03T02:39:19.488Z,20.65
2019-03-03T02:39:53.926Z,20.40
2019-03-03T02:40:28.353Z,19.35
2019-03-03T02:41:02.794Z,21.65
2019-03-03T02:41:37.936Z,20.52
2019-03-03T02:42:12.247Z,21.15
2019-03-03T02:42:47.245Z,21.57
2019-03-03T02:43:22.250Z,21.65
2019-03-03T02:43:55.568Z,21.62
2019-03-03T02:44:30.032Z,20.52
2019-03-03T02:45:06.253Z,21.02
2019-03-03T02:45:41.215Z,21.73
2019-03-03T02:46:15.489Z,20.48
2019-03-03T02:46:49.931Z,20.55
2019-03-03T02:47:24.653Z,22.30
2019-03-03T02:47:59.207Z,20.75
2019-03-03T02:48:34.611Z,21.80
2019-03-03T02:49:08.913Z,21.77
2019-03-03T02:49:43.393Z,21.25
2019-03-03T02:50:18.195Z,20.32
2019-03-03T02:50:52.547Z,19.92
2019-03-03T02:51:26.518Z,20.97
2019-03-03T02:52:01.103Z,22.05
2019-03-03T02:52:35.026Z,21.05
2019-03-03T02:53:09.620Z,20.02
2019-03-03T02:53:44.570Z,21.97
2019-03-03T02:54:19.223Z,20.75
2019-03-03T02:54:52.738Z,21.15
2019-03-03T02:55:27.153Z,21.30
2019-03-03T02:56:02.228Z,21.00
2019-03-03T02:56:35.768Z,20.68
2019-03-03T02:57:10.048Z,20.57
2019-03-03T02:57:44.443Z,20.50
2019-03-03T02:58:19.622Z,21.00
2019-03-03T02:58:54.373Z,20.35
2019-03-03T02:59:29.530Z,23.20
2019-03-03T03:00:04.089Z,22.85
2019-03-03T03:00:43.760Z,22.93
2019-03-03T03:01:30.915Z,22.85
2019-03-03T03:02:09.115Z,20.77
2019-03-03T03:03:09.287Z,20.48
2019-03-03T03:03:43.966Z,21.00
2019-03-03T03:04:18.320Z,20.25
2019-03-03T03:04:52.701Z,20.02
2019-03-03T03:05:58.484Z,20.65
2019-03-03T03:06:58.371Z,21.20
2019-03-03T03:07:39.785Z,19.90
2019-03-03T03:08:18.619Z,21.52
2019-03-03T03:09:14.788Z,21.20
2019-03-03T03:09:59.870Z,20.02
2019-03-03T03:10:55.678Z,20.23
2019-03-03T03:11:36.691Z,20.40
2019-03-03T03:12:16.574Z,22.30
2019-03-03T03:12:57.052Z,22.75
2019-03-03T03:13:55.329Z,21.57
2019-03-03T03:14:48.665Z,19.70
2019-03-03T03:15:56.020Z,22.35
2019-03-03T03:16:50.797Z,19.05
2019-03-03T03:17:55.335Z,20.60
2019-03-03T03:18:38.556Z,19.82
2019-03-03T03:19:25.896Z,21.65
2019-03-03T03:20:16.442Z,19.67
2019-03-03T03:20:57.810Z,20.90
2019-03-03T03:21:45.567Z,18.92
2019-03-03T03:22:46.594Z,20.15
2019-03-03T03:23:35.442Z,20.45
2019-03-03T03:24:36.687Z,21.50
2019-03-03T03:25:25.601Z,20.30
2019-03-03T03:26:07.980Z,20.30
2019-03-03T03:27:02.727Z,20.27
2019-03-03T03:28:01.354Z,23.18
2019-03-03T03:28:44.982Z,20.45
2019-03-03T03:29:42.784Z,21.85
2019-03-03T03:30:37.767Z,20.80
2019-03-03T03:31:38.410Z,19.70
2019-03-03T03:32:23.068Z,18.70
2019-03-03T03:33:27.373Z,20.65
2019-03-03T03:34:13.479Z,20.02
2019-03-03T03:35:04.451Z,21.27
2019-03-03T03:36:05.681Z,20.90
2019-03-03T03:36:56.521Z,19.73
2019-03-03T03:37:51.388Z,19.55
2019-03-03T03:38:31.546Z,21.62
2019-03-03T03:39:09.807Z,20.27
2019-03-03T03:40:00.686Z,21.77
2019-03-03T03:40:43.975Z,21.33
2019-03-03T03:41:35.116Z,21.27
2019-03-03T03:42:26.398Z,21.40
2019-03-03T03:43:24.511Z,21.17
2019-03-03T03:44:19.131Z,22.60
2019-03-03T03:45:26.349Z,20.85
2019-03-03T03:46:24.316Z,20.50
2019-03-03T03:47:05.853Z,23.35
2019-03-03T03:47:50.190Z,21.87
2019-03-03T03:48:42.461Z,22.30
2019-03-03T03:49:31.906Z,23.40
2019-03-03T03:50:11.507Z,21.50
2019-03-03T03:51:04.161Z,22.35
2019-03-03T03:51:47.887Z,22.80
2019-03-03T03:52:48.874Z,22.50
2019-03-03T03:53:50.123Z,22.15
2019-03-03T03:54:41.050Z,21.70
2019-03-03T03:55:38.659Z,22.90
2019-03-03T03:56:19.431Z,22.67
2019-03-03T03:57:00.439Z,23.30
2019-03-03T03:57:48.199Z,23.55
2019-03-03T03:58:28.834Z,24.60
2019-03-03T03:59:30.089Z,22.93
2019-03-03T04:00:10.790Z,23.50
2019-03-03T04:01:03.092Z,24.30
2019-03-03T04:02:10.200Z,22.90
2019-03-03T04:03:02.486Z,23.10
2019-03-03T04:03:44.058Z,22.80
2019-03-03T04:04:29.307Z,23.38
2019-03-03T04:05:23.994Z,24.32
2019-03-03T04:06:04.335Z,23.90
2019-03-03T04:06:45.623Z,24.82
2019-03-03T04:07:40.908Z,23.32
2019-03-03T04:08:19.525Z,24.30
2019-03-03T04:09:04.416Z,24.43
2019-03-03T04:09:50.893Z,25.50
2019-03-03T04:10:51.723Z,22.48
2019-03-03T04:11:46.564Z,24.67
2019-03-03T04:12:44.835Z,25.72
2019-03-03T04:13:39.585Z,24.15
2019-03-03T04:14:21.299Z,22.52
2019-03-03T04:15:16.310Z,24.07
2019-03-03T04:16:11.281Z,25.23
2019-03-03T04:16:58.475Z,24.10
2019-03-03T04:17:53.220Z,22.95
2019-03-03T04:18:48.260Z,23.62
2019-03-03T04:19:28.184Z,23.32
2019-03-03T04:20:18.767Z,25.10
2019-03-03T04:21:10.761Z,24.05
2019-03-03T04:21:58.835Z,24.35
2019-03-03T04:22:49.618Z,22.98
2019-03-03T04:23:30.251Z,23.40
2019-03-03T04:24:21.334Z,26.00
2019-03-03T04:25:12.255Z,24.92
2019-03-03T04:26:04.237Z,22.87
2019-03-03T04:27:08.614Z,24.07
2019-03-03T04:27:59.245Z,24.80
2019-03-03T04:28:42.363Z,25.08
2019-03-03T04:29:52.708Z,23.83
2019-03-03T04:30:33.474Z,22.17
2019-03-03T04:31:28.680Z,22.70
2019-03-03T04:32:26.461Z,23.90
2019-03-03T04:33:18.739Z,23.45
2019-03-03T04:33:57.879Z,23.42
2019-03-03T04:34:47.137Z,24.75
2019-03-03T04:35:36.374Z,23.05
2019-03-03T04:36:37.234Z,25.32
2019-03-03T04:37:17.021Z,24.18
2019-03-03T04:38:18.326Z,24.35
2019-03-03T04:39:13.316Z,24.02
2019-03-03T04:39:52.574Z,21.70
2019-03-03T04:40:47.833Z,23.07
2019-03-03T04:41:55.191Z,25.52
2019-03-03T04:42:34.379Z,25.37
2019-03-03T04:43:35.564Z,21.97
2019-03-03T04:44:19.430Z,23.60
2019-03-03T04:45:17.895Z,24.47
2019-03-03T04:45:55.708Z,22.95
2019-03-03T04:46:48.317Z,25.52
2019-03-03T04:47:28.975Z,23.45
2019-03-03T04:48:22.957Z,23.50
2019-03-03T04:49:27.303Z,24.12
2019-03-03T04:50:23.579Z,23.38
2019-03-03T04:51:22.304Z,23.67
2019-03-03T04:52:29.714Z,23.30
2019-03-03T04:53:09.432Z,22.10
2019-03-03T04:54:10.594Z,22.35
2019-03-03T04:55:05.780Z,24.87
2019-03-03T04:56:00.813Z,24.50
2019-03-03T04:56:52.518Z,24.07
2019-03-03T04:57:44.493Z,24.07
2019-03-03T04:58:35.044Z,24.23
2019-03-03T04:59:25.337Z,25.12
2019-03-03T05:00:12.917Z,23.98
2019-03-03T05:01:05.218Z,23.27
2019-03-03T05:01:55.852Z,24.40
2019-03-03T05:02:49.058Z,25.05
2019-03-03T05:03:28.854Z,23.02
2019-03-03T05:04:28.786Z,25.08
2019-03-03T05:05:12.199Z,24.72
2019-03-03T05:06:02.927Z,25.88
2019-03-03T05:07:00.960Z,24.10
2019-03-03T05:07:58.947Z,25.37
2019-03-03T05:08:40.574Z,24.77
2019-03-03T05:09:50.680Z,24.45
2019-03-03T05:10:42.930Z,23.02
2019-03-03T05:12:24.424Z,24.20
2019-03-03T05:13:16.779Z,24.35
2019-03-03T05:14:00.479Z,24.43
2019-03-03T05:14:36.828Z,25.60
2019-03-03T05:15:35.611Z,25.35
2019-03-03T05:16:30.419Z,24.60
2019-03-03T05:17:08.988Z,24.52
2019-03-03T05:17:49.770Z,24.43
2019-03-03T05:18:44.514Z,25.02
2019-03-03T05:19:26.982Z,24.60
2019-03-03T05:20:00.546Z,24.70
2019-03-03T05:20:46.382Z,26.35
2019-03-03T05:21:19.294Z,26.70
2019-03-03T05:21:52.101Z,26.17
2019-03-03T05:22:24.966Z,28.07
2019-03-03T05:22:57.488Z,25.30
2019-03-03T05:23:29.992Z,24.27
2019-03-03T05:24:02.750Z,26.35
2019-03-03T05:24:35.231Z,26.82
2019-03-03T05:25:07.727Z,26.40
2019-03-03T05:25:40.619Z,24.45
2019-03-03T05:26:13.781Z,26.40
2019-03-03T05:26:46.266Z,26.95
2019-03-03T05:27:19.111Z,28.65
2019-03-03T05:27:51.896Z,26.48
2019-03-03T05:28:24.411Z,27.52
2019-03-03T05:28:57.182Z,26.25
2019-03-03T05:29:29.802Z,26.90
2019-03-03T05:30:02.827Z,26.82
2019-03-03T05:30:35.319Z,26.60
2019-03-03T05:31:08.215Z,26.93
2019-03-03T05:31:40.713Z,26.50
2019-03-03T05:32:13.211Z,25.80
2019-03-03T05:32:45.690Z,24.07
2019-03-03T05:33:18.183Z,25.90
2019-03-03T05:33:50.974Z,26.77
2019-03-03T05:34:23.737Z,25.12
2019-03-03T05:34:56.519Z,26.68
2019-03-03T05:35:29.348Z,25.88
2019-03-03T05:36:02.243Z,26.65
2019-03-03T05:36:34.722Z,24.87
2019-03-03T05:37:07.223Z,25.12
2019-03-03T05:37:40.088Z,23.87
2019-03-03T05:38:13.226Z,26.52
2019-03-03T05:38:46.040Z,26.70
2019-03-03T05:39:18.561Z,26.10
2019-03-03T05:39:51.058Z,25.25
2019-03-03T05:40:23.551Z,26.68
2019-03-03T05:40:56.365Z,26.27
2019-03-03T05:41:29.139Z,26.37
2019-03-03T05:42:01.626Z,27.42
2019-03-03T05:42:34.123Z,26.10
2019-03-03T05:43:06.610Z,27.20
2019-03-03T05:43:39.399Z,26.00
2019-03-03T05:44:11.886Z,26.00
2019-03-03T05:44:44.774Z,27.67
2019-03-03T05:45:17.267Z,26.73
2019-03-03T05:45:50.027Z,26.62
2019-03-03T05:46:22.532Z,24.90
2019-03-03T05:46:55.322Z,25.43
2019-03-03T05:47:28.125Z,26.23
2019-03-03T05:48:00.602Z,24.90
2019-03-03T05:48:33.442Z,24.98
2019-03-03T05:49:06.360Z,25.65
2019-03-03T05:49:39.130Z,25.50
2019-03-03T05:50:11.649Z,25.15
2019-03-03T05:50:44.350Z,25.27
2019-03-03T05:51:16.844Z,25.97
2019-03-03T05:51:49.326Z,24.52
2019-03-03T05:52:22.501Z,25.27
2019-03-03T05:52:54.991Z,23.62
2019-03-03T05:53:27.597Z,23.18
2019-03-03T05:54:00.100Z,26.60
2019-03-03T05:54:32.595Z,25.12
2019-03-03T05:55:05.258Z,25.40
2019-03-03T05:55:37.779Z,23.55
2019-03-03T05:56:10.578Z,24.35
2019-03-03T05:56:43.076Z,22.32
2019-03-03T05:57:15.567Z,26.05
2019-03-03T05:57:48.060Z,24.65
2019-03-03T05:58:20.539Z,24.12
2019-03-03T05:58:53.038Z,23.98
2019-03-03T05:59:25.540Z,23.18
2019-03-03T05:59:58.474Z,23.55
2019-03-03T06:00:31.243Z,22.42
2019-03-03T06:01:04.148Z,23.50
2019-03-03T06:01:36.633Z,21.87
2019-03-03T06:02:09.835Z,24.05
2019-03-03T06:02:42.342Z,22.55
2019-03-03T06:03:14.839Z,23.20
2019-03-03T06:03:47.341Z,25.15
2019-03-03T06:04:20.237Z,23.35
2019-03-03T06:04:53.170Z,24.25
2019-03-03T06:05:25.673Z,22.90
2019-03-03T06:05:58.157Z,22.52
2019-03-03T06:06:31.437Z,23.62
2019-03-03T06:07:03.923Z,22.55
2019-03-03T06:07:36.408Z,23.95
2019-03-03T06:08:09.616Z,23.15
2019-03-03T06:08:42.108Z,22.00
2019-03-03T06:09:14.962Z,21.93
2019-03-03T06:09:48.496Z,22.07
2019-03-03T06:10:20.967Z,22.30
2019-03-03T06:10:53.452Z,22.40
2019-03-03T06:11:25.945Z,23.50
2019-03-03T06:11:59.062Z,25.82
2019-03-03T06:12:31.879Z,24.67
2019-03-03T06:13:04.672Z,24.70
2019-03-03T06:13:37.519Z,23.55
2019-03-03T06:14:10.122Z,25.25
2019-03-03T06:14:42.622Z,24.18
2019-03-03T06:15:15.136Z,21.80
2019-03-03T06:15:48.475Z,23.45
2019-03-03T06:16:20.959Z,21.93
2019-03-03T06:16:53.461Z,21.57
2019-03-03T06:17:26.348Z,20.68
2019-03-03T06:17:58.830Z,21.77
2019-03-03T06:18:31.330Z,21.70
2019-03-03T06:19:04.082Z,21.90
2019-03-03T06:19:36.566Z,20.85
2019-03-03T06:20:10.050Z,21.57
2019-03-03T06:20:42.643Z,21.70
2019-03-03T06:21:15.422Z,21.65
2019-03-03T06:21:48.295Z,21.82
2019-03-03T06:22:20.784Z,20.77
2019-03-03T06:22:53.468Z,22.87
2019-03-03T06:23:25.950Z,21.90
2019-03-03T06:23:58.451Z,22.62
2019-03-03T06:24:30.956Z,21.75
2019-03-03T06:25:04.060Z,21.35
2019-03-03T06:25:36.532Z,20.50
2019-03-03T06:26:09.006Z,20.88
2019-03-03T06:26:41.508Z,21.20
2019-03-03T06:27:13.985Z,21.50
2019-03-03T06:27:46.756Z,21.60
2019-03-03T06:28:19.278Z,22.00
2019-03-03T06:28:51.765Z,20.45
2019-03-03T06:29:24.262Z,19.98
2019-03-03T06:29:56.748Z,18.40
2019-03-03T06:30:29.250Z,20.97
2019-03-03T06:31:01.741Z,20.15
2019-03-03T06:31:34.513Z,21.33
2019-03-03T06:32:07.449Z,20.75
2019-03-03T06:32:39.887Z,20.43
2019-03-03T06:33:12.391Z,20.25
2019-03-03T06:33:44.925Z,19.37
2019-03-03T06:34:17.407Z,20.85
2019-03-03T06:34:50.166Z,19.87
2019-03-03T06:35:22.655Z,18.87
2019-03-03T06:35:55.429Z,18.70
2019-03-03T06:36:27.925Z,20.02
2019-03-03T06:37:00.699Z,21.02
2019-03-03T06:37:33.497Z,20.40
2019-03-03T06:38:06.002Z,19.90
2019-03-03T06:38:38.836Z,18.25
2019-03-03T06:39:11.648Z,19.12
2019-03-03T06:39:44.794Z,19.45
2019-03-03T06:40:17.297Z,19.30
2019-03-03T06:40:50.960Z,18.60
2019-03-03T06:41:23.742Z,20.17
2019-03-03T06:41:56.224Z,18.02
2019-03-03T06:42:28.710Z,18.48
2019-03-03T06:43:01.192Z,18.25
2019-03-03T06:43:33.688Z,18.52
2019-03-03T06:44:06.166Z,18.30
2019-03-03T06:44:39.091Z,18.00
2019-03-03T06:45:12.467Z,19.17
2019-03-03T06:45:44.972Z,18.27
2019-03-03T06:46:17.446Z,18.52
2019-03-03T06:46:50.210Z,17.73
2019-03-03T06:47:22.686Z,18.82
2019-03-03T06:47:55.189Z,18.37
2019-03-03T06:48:27.680Z,18.70
2019-03-03T06:49:00.473Z,17.25
2019-03-03T06:49:32.981Z,16.97
2019-03-03T06:50:07.420Z,17.55
2019-03-03T06:50:40.200Z,17.62
2019-03-03T06:51:13.308Z,17.85
2019-03-03T06:51:45.854Z,16.95
2019-03-03T06:52:19.402Z,18.42
2019-03-03T06:52:52.202Z,17.12
2019-03-03T06:53:25.080Z,16.35
2019-03-03T06:53:58.354Z,17.45
2019-03-03T06:54:31.433Z,16.95
2019-03-03T06:55:04.545Z,17.00
2019-03-03T06:55:37.087Z,16.30
2019-03-03T06:56:09.592Z,16.27
2019-03-03T06:56:42.435Z,17.05
2019-03-03T06:57:15.247Z,16.45
2019-03-03T06:57:47.744Z,16.23
2019-03-03T06:58:20.792Z,15.90
2019-03-03T06:58:53.288Z,15.85
2019-03-03T06:59:25.765Z,16.12
2019-03-03T07:00:01.222Z,15.95
2019-03-03T07:00:33.715Z,15.65
2019-03-03T07:01:06.246Z,16.05
2019-03-03T07:01:38.733Z,16.93
2019-03-03T07:02:11.230Z,14.33
2019-03-03T07:02:43.833Z,15.32
2019-03-03T07:03:16.320Z,15.45
2019-03-03T07:03:48.838Z,14.60
2019-03-03T07:04:21.319Z,15.23
2019-03-03T07:04:53.854Z,16.30
2019-03-03T07:05:26.328Z,15.00
2019-03-03T07:05:58.818Z,16.60
2019-03-03T07:06:31.343Z,15.80
2019-03-03T07:07:03.819Z,15.98
2019-03-03T07:07:36.598Z,16.35
2019-03-03T07:08:09.075Z,14.87
2019-03-03T07:08:41.547Z,16.77
2019-03-03T07:09:14.049Z,15.70
2019-03-03T07:09:46.519Z,15.72
2019-03-03T07:10:19.297Z,15.60
2019-03-03T07:10:52.128Z,13.43
2019-03-03T07:11:24.890Z,15.38
2019-03-03T07:11:57.410Z,14.50
2019-03-03T07:12:30.224Z,14.90
2019-03-03T07:13:03.045Z,14.85
2019-03-03T07:13:35.475Z,14.60
2019-03-03T07:14:07.970Z,15.30
2019-03-03T07:14:40.753Z,15.38
2019-03-03T07:15:15.009Z,14.47
2019-03-03T07:15:47.520Z,13.85
2019-03-03T07:16:20.311Z,14.40
2019-03-03T07:16:53.124Z,13.53
2019-03-03T07:17:25.940Z,14.75
2019-03-03T07:17:58.432Z,13.68
2019-03-03T07:18:31.035Z,13.98
2019-03-03T07:19:03.526Z,14.18
2019-03-03T07:19:36.652Z,14.75
2019-03-03T07:20:10.030Z,14.98
2019-03-03T07:20:42.532Z,14.68
2019-03-03T07:21:15.322Z,14.43
2019-03-03T07:21:47.930Z,13.80
2019-03-03T07:22:20.691Z,13.22
2019-03-03T07:22:53.216Z,12.75
2019-03-03T07:23:25.706Z,12.63
2019-03-03T07:23:58.206Z,12.73
2019-03-03T07:24:30.708Z,13.43
2019-03-03T07:25:04.409Z,12.78
2019-03-03T07:25:36.898Z,13.05
2019-03-03T07:26:09.404Z,13.72
2019-03-03T07:26:41.893Z,12.23
2019-03-03T07:27:14.375Z,12.23
2019-03-03T07:27:46.861Z,12.20
2019-03-03T07:28:19.373Z,13.22
2019-03-03T07:28:52.148Z,12.15
2019-03-03T07:29:24.643Z,13.70
2019-03-03T07:29:57.139Z,13.10
2019-03-03T07:30:29.636Z,12.80
2019-03-03T07:31:02.128Z,12.15
2019-03-03T07:31:34.619Z,12.10
2019-03-03T07:32:07.107Z,12.35
2019-03-03T07:32:52.098Z,13.00
2019-03-03T07:33:35.227Z,13.00
2019-03-03T07:34:07.726Z,10.15
2019-03-03T07:34:40.197Z,12.20
2019-03-03T07:35:12.673Z,12.82
2019-03-03T07:35:45.146Z,12.13
2019-03-03T07:36:17.930Z,11.40
2019-03-03T07:36:50.413Z,12.15
2019-03-03T07:37:23.255Z,11.65
2019-03-03T07:37:55.744Z,11.80
2019-03-03T07:38:28.224Z,11.70
2019-03-03T07:39:00.744Z,11.10
2019-03-03T07:39:33.634Z,11.38
2019-03-03T07:40:06.216Z,10.90
2019-03-03T07:40:39.055Z,11.40
2019-03-03T07:41:11.987Z,11.68
2019-03-03T07:41:44.468Z,11.75
2019-03-03T07:42:17.254Z,9.90
2019-03-03T07:42:49.727Z,11.10
2019-03-03T07:43:22.482Z,10.65
2019-03-03T07:43:54.993Z,11.35
2019-03-03T07:44:27.819Z,11.35
2019-03-03T07:45:00.696Z,10.98
2019-03-03T07:45:33.154Z,10.95
2019-03-03T07:46:05.626Z,11.35
2019-03-03T07:46:38.094Z,9.40
2019-03-03T07:47:10.952Z,10.95
2019-03-03T07:47:44.132Z,10.70
2019-03-03T07:48:16.610Z,10.53
2019-03-03T07:48:49.090Z,10.98
2019-03-03T07:49:21.922Z,11.33
2019-03-03T07:49:54.928Z,10.63
2019-03-03T07:50:27.408Z,10.10
2019-03-03T07:51:00.520Z,9.95
2019-03-03T07:51:32.989Z,9.88
2019-03-03T07:52:05.466Z,11.00
2019-03-03T07:52:37.952Z,10.85
2019-03-03T07:53:10.423Z,10.20
2019-03-03T07:53:43.215Z,9.85
2019-03-03T07:54:15.692Z,10.05
2019-03-03T07:54:48.160Z,9.60
2019-03-03T07:55:20.665Z,10.23
2019-03-03T07:55:53.246Z,9.90
2019-03-03T07:56:26.114Z,9.70
2019-03-03T07:56:58.595Z,10.08
2019-03-03T07:57:31.085Z,8.70
2019-03-03T07:58:03.573Z,9.30
2019-03-03T07:58:36.465Z,9.95
2019-03-03T07:59:08.936Z,10.28
2019-03-03T07:59:41.734Z,9.90
2019-03-03T08:00:14.339Z,8.80
2019-03-03T08:00:46.843Z,9.60
2019-03-03T08:01:19.310Z,8.48
2019-03-03T08:01:51.786Z,9.38
2019-03-03T08:02:24.546Z,8.15
2019-03-03T08:02:57.327Z,8.75
2019-03-03T08:03:30.090Z,8.90
2019-03-03T08:04:02.682Z,8.80
2019-03-03T08:04:35.170Z,8.45
2019-03-03T08:05:07.671Z,8.13
2019-03-03T08:05:40.439Z,8.70
2019-03-03T08:06:12.956Z,9.90
2019-03-03T08:06:45.874Z,9.23
2019-03-03T08:07:18.358Z,8.33
2019-03-03T08:07:50.851Z,8.65
2019-03-03T08:08:23.675Z,8.25
2019-03-03T08:08:56.135Z,7.95
2019-03-03T08:09:28.894Z,8.33
2019-03-03T08:10:01.373Z,7.83
2019-03-03T08:10:33.839Z,7.87
2019-03-03T08:11:06.310Z,7.83
2019-03-03T08:11:38.812Z,7.65
2019-03-03T08:12:11.275Z,8.93
2019-03-03T08:12:43.731Z,7.62
2019-03-03T08:13:16.194Z,8.95
2019-03-03T08:13:48.955Z,7.92
2019-03-03T08:14:21.436Z,7.47
2019-03-03T08:14:54.299Z,7.53
2019-03-03T08:15:26.763Z,8.00
2019-03-03T08:15:59.272Z,7.45
2019-03-03T08:16:31.750Z,7.70
2019-03-03T08:17:04.264Z,8.35
2019-03-03T08:17:36.909Z,7.35
2019-03-03T08:18:09.388Z,7.90
2019-03-03T08:18:42.515Z,8.00
2019-03-03T08:19:15.647Z,7.80
2019-03-03T08:19:48.115Z,6.70
2019-03-03T08:20:20.588Z,7.30
2019-03-03T08:20:53.467Z,7.03